Airfield :
LOGIN :

Register | Disclaimer

   EN    FR    IT 

 










Legend :    VFR   Marginal VFR   IFR   Intensive IFR   Very Intensive IFR
Visi :
Ceiling :
>= 8 km
>= 3000ft
5 to 8 km
1000 to 3000 ft
1500m to 5 km
500 to 1000 ft
800 to 1500m
200 to 500 ft
< 800m
< 200 ft
Symbols :   Thunderstorms  Fog  Heavy snow  Heavy precipitations  Wind > 20 kt
SIGMETs :     Misc.  Thunderstorms  Icing  Turbulence  Mountain Waves  Volcanic Ashes






- Airport Elevation : 160 ft
- IATA code : FMO


EDDG - Münster Osnabrück Int.

CURRENT METAR :
  • 010350Z 06003KT 010V120 6000 BKN007 02/02 Q1035 BECMG 4000 BR

EXPIRED METARs :
  • 010320Z VRB02KT 6000 BKN008 01/01 Q1035 BECMG 4000 BR
  • 010250Z 06002KT 6000 1200W R07/0900U BCFG FEW011 00/00 Q1035 BECMG 1500 BR BKN008
  • 010220Z 04003KT 6000 1000W R07/1900N BCFG NSC 00/00 Q1035 BECMG 1500 BR
  • 010150Z 02002KT 6000 1200W R07/P2000N BCFG NSC 01/01 Q1035 BECMG 1500 BR

TAF AMD TAF EDDG
Valid from the 01 at 01:00 until the 02 at 00:00 UTC


010158Z 0101/0124 06005KT 6000 NSC
BECMG 0102/0106 2000 BR BKN004
PROB30
TEMPO 0104/0107 0500 FG BKN001
BECMG 0108/0111 9999 FEW020
PROB30
TEMPO 0111/0113 BKN012



MET'MAP, your aeronautical weather chart ! - Copyright ORBIFLY December 2007 - Disclaimer

ORBIFLY MET'MAP TEAM :

Programming & Development : Alexandra Zaïnal
Concept & original design : Baudouin d'Aumeries
Assistance for programming : Marc-Olivier Méhu
Technical & hardware support : Manuel Goepfert

Contact : metmap@orbifly.com




SOURCES & CREDITS :

   NOAA